createdAt,value
2022-10-05T00:00:26.177Z,10.27
2022-10-05T00:03:29.196Z,10.77
2022-10-05T00:06:17.184Z,11.95
2022-10-05T00:08:51.250Z,13.65
2022-10-05T00:11:32.256Z,8.77
2022-10-05T00:14:24.279Z,14.57
2022-10-05T00:17:05.205Z,11.68
2022-10-05T00:19:46.617Z,13.45
2022-10-05T00:22:37.184Z,5.88
2022-10-05T00:25:23.186Z,8.95
2022-10-05T00:28:12.216Z,11.20
2022-10-05T00:31:10.170Z,10.43
2022-10-05T00:33:58.192Z,13.82
2022-10-05T00:36:32.253Z,11.07
2022-10-05T00:39:20.173Z,15.23
2022-10-05T00:42:10.200Z,8.13
2022-10-05T00:45:02.173Z,15.07
2022-10-05T00:47:58.202Z,11.43
2022-10-05T00:51:15.201Z,10.13
2022-10-05T00:53:59.219Z,11.73
2022-10-05T00:56:55.173Z,14.90
2022-10-05T00:59:47.394Z,18.98
2022-10-05T01:02:48.237Z,9.98
2022-10-05T01:05:28.248Z,16.23
2022-10-05T01:08:29.194Z,13.10
2022-10-05T01:11:24.259Z,15.30
2022-10-05T01:14:11.199Z,12.05
2022-10-05T01:17:11.252Z,11.25
2022-10-05T01:19:57.197Z,16.88
2022-10-05T01:22:41.272Z,16.60
2022-10-05T01:25:27.190Z,12.93
2022-10-05T01:28:37.338Z,11.52
2022-10-05T01:31:23.370Z,10.57
2022-10-05T01:34:20.290Z,12.93
2022-10-05T01:37:21.216Z,15.38
2022-10-05T01:40:15.204Z,13.52
2022-10-05T01:43:13.214Z,20.63
2022-10-05T01:46:16.283Z,15.50
2022-10-05T01:48:56.202Z,11.73
2022-10-05T01:51:50.242Z,11.30
2022-10-05T01:54:24.112Z,14.93
2022-10-05T01:57:47.203Z,11.80
2022-10-05T02:00:21.600Z,7.60
2022-10-05T02:03:27.208Z,10.80
2022-10-05T02:06:21.196Z,17.75
2022-10-05T02:09:12.218Z,16.17
2022-10-05T02:11:48.681Z,12.05
2022-10-05T02:14:39.192Z,13.25
2022-10-05T02:17:24.318Z,11.02
2022-10-05T02:20:15.201Z,12.70
2022-10-05T02:23:00.244Z,10.98
2022-10-05T02:25:50.217Z,13.88
2022-10-05T02:28:33.417Z,9.98
2022-10-05T02:31:30.256Z,12.07
2022-10-05T02:34:23.266Z,7.70
2022-10-05T02:37:47.228Z,11.43
2022-10-05T02:40:40.274Z,10.05
2022-10-05T02:43:30.193Z,13.55
2022-10-05T02:46:13.506Z,14.00
2022-10-05T02:49:03.191Z,7.25
2022-10-05T02:51:44.305Z,9.73
2022-10-05T02:54:45.192Z,6.97
2022-10-05T02:57:43.304Z,15.07
2022-10-05T03:00:31.183Z,13.07
2022-10-05T03:03:40.226Z,13.32
2022-10-05T03:06:36.186Z,16.52
2022-10-05T03:09:24.201Z,9.32
2022-10-05T03:12:09.283Z,9.32
2022-10-05T03:15:04.221Z,10.20
2022-10-05T03:17:58.323Z,13.38
2022-10-05T03:20:56.208Z,8.18
2022-10-05T03:23:50.287Z,12.68
2022-10-05T03:26:47.491Z,9.57
2022-10-05T03:29:21.308Z,16.38
2022-10-05T03:32:16.226Z,8.93
2022-10-05T03:35:02.265Z,16.73
2022-10-05T03:37:58.437Z,18.10
2022-10-05T03:40:32.265Z,11.38
2022-10-05T03:43:29.243Z,13.32
2022-10-05T03:46:03.382Z,12.30
2022-10-05T03:49:17.248Z,9.68
2022-10-05T03:51:59.278Z,10.77
2022-10-05T03:54:49.224Z,11.38
2022-10-05T03:57:26.291Z,15.35
2022-10-05T04:00:19.224Z,13.70
2022-10-05T04:03:09.297Z,11.10
2022-10-05T04:06:03.202Z,15.38
2022-10-05T04:11:34.225Z,10.00
2022-10-05T04:14:19.255Z,9.65
2022-10-05T04:17:05.232Z,19.02
2022-10-05T04:19:55.215Z,15.43
2022-10-05T04:22:39.248Z,17.77
2022-10-05T04:25:32.225Z,24.77
2022-10-05T04:28:19.181Z,16.35
2022-10-05T04:31:07.257Z,13.68
2022-10-05T04:33:41.132Z,12.80
2022-10-05T04:36:47.568Z,16.70
2022-10-05T04:39:41.234Z,11.93
2022-10-05T04:42:53.229Z,15.73
2022-10-05T04:45:45.212Z,18.48
2022-10-05T04:48:35.246Z,16.27
2022-10-05T04:51:09.133Z,14.18
2022-10-05T04:53:57.223Z,11.80
2022-10-05T04:56:37.015Z,14.80
2022-10-05T04:59:32.228Z,10.63
2022-10-05T05:02:13.262Z,13.48
2022-10-05T05:05:05.964Z,10.13
2022-10-05T05:08:04.260Z,11.00
2022-10-05T05:10:46.243Z,12.55
2022-10-05T05:13:39.318Z,12.50
2022-10-05T05:16:28.288Z,11.57
2022-10-05T05:19:36.219Z,14.02
2022-10-05T05:22:17.249Z,12.80
2022-10-05T05:25:12.345Z,11.15
2022-10-05T05:27:59.291Z,10.52
2022-10-05T05:30:55.286Z,11.55
2022-10-05T05:33:35.251Z,13.55
2022-10-05T05:36:37.307Z,9.75
2022-10-05T05:39:27.229Z,12.05
2022-10-05T05:42:31.236Z,11.38
2022-10-05T05:45:26.490Z,14.13
2022-10-05T05:48:19.244Z,10.23
2022-10-05T05:50:58.722Z,15.77
2022-10-05T05:54:00.265Z,9.68
2022-10-05T05:56:36.486Z,10.85
2022-10-05T05:59:24.252Z,10.63
2022-10-05T06:02:06.211Z,8.80
2022-10-05T06:04:54.233Z,9.10
2022-10-05T06:07:31.024Z,25.52
2022-10-05T06:10:27.235Z,16.00
2022-10-05T06:13:08.297Z,11.55
2022-10-05T06:16:02.273Z,6.30
2022-10-05T06:18:46.255Z,10.68
2022-10-05T06:21:40.241Z,5.82
2022-10-05T06:24:46.639Z,5.55
2022-10-05T06:27:41.266Z,11.02
2022-10-05T06:30:16.598Z,9.32
2022-10-05T06:33:04.260Z,8.65
2022-10-05T06:35:48.314Z,14.35
2022-10-05T06:38:55.241Z,8.23
2022-10-05T06:41:47.815Z,10.00
2022-10-05T06:45:01.249Z,16.80
2022-10-05T06:47:50.312Z,5.32
2022-10-05T06:51:05.232Z,10.30
2022-10-05T06:54:04.644Z,13.80
2022-10-05T06:57:10.237Z,12.00
2022-10-05T06:59:51.111Z,12.85
2022-10-05T07:02:52.259Z,9.07
2022-10-05T07:05:32.229Z,8.40
2022-10-05T07:08:29.247Z,10.65
2022-10-05T07:11:18.786Z,8.82
2022-10-05T07:14:36.275Z,12.05
2022-10-05T07:17:31.765Z,11.20
2022-10-05T07:20:25.256Z,17.05
2022-10-05T07:23:18.044Z,10.77
2022-10-05T07:26:11.256Z,8.50
2022-10-05T07:28:48.753Z,8.05
2022-10-05T07:31:42.299Z,11.52
2022-10-05T07:34:18.889Z,8.75
2022-10-05T07:37:40.264Z,13.25
2022-10-05T07:40:29.245Z,11.23
2022-10-05T07:43:14.635Z,10.43
2022-10-05T07:46:21.333Z,9.32
2022-10-05T07:49:07.379Z,12.52
2022-10-05T07:52:07.281Z,10.98
2022-10-05T07:54:51.265Z,12.93
2022-10-05T07:57:58.277Z,10.50
2022-10-05T08:00:51.267Z,11.85
2022-10-05T08:03:35.348Z,12.23
2022-10-05T08:06:36.276Z,12.32
2022-10-05T08:09:13.323Z,11.77
2022-10-05T08:12:09.271Z,11.35
2022-10-05T08:15:06.304Z,10.40
2022-10-05T08:20:30.334Z,10.68
2022-10-05T08:23:45.268Z,11.82
2022-10-05T08:26:31.259Z,8.45
2022-10-05T08:29:13.934Z,11.43
2022-10-05T08:32:19.262Z,9.38
2022-10-05T08:35:32.319Z,16.05
2022-10-05T08:38:13.276Z,11.23
2022-10-05T08:41:10.249Z,8.05
2022-10-05T08:44:20.287Z,9.02
2022-10-05T08:47:13.252Z,15.68
2022-10-05T08:50:32.257Z,9.60
2022-10-05T08:53:38.280Z,11.07
2022-10-05T08:56:26.381Z,8.98
2022-10-05T08:59:33.271Z,10.63
2022-10-05T09:02:20.367Z,13.02
2022-10-05T09:04:54.355Z,11.70
2022-10-05T09:07:41.290Z,7.75
2022-10-05T09:10:44.298Z,9.20
2022-10-05T09:13:23.728Z,10.82
2022-10-05T09:16:25.415Z,12.15
2022-10-05T09:19:06.302Z,10.10
2022-10-05T09:21:53.385Z,11.95
2022-10-05T09:24:55.295Z,7.93
2022-10-05T09:27:49.305Z,11.80
2022-10-05T09:30:23.480Z,8.88
2022-10-05T09:33:32.271Z,14.65
2022-10-05T09:36:15.313Z,8.52
2022-10-05T09:39:03.271Z,7.03
2022-10-05T09:41:39.946Z,9.95
2022-10-05T09:44:34.312Z,8.73
2022-10-05T09:47:45.654Z,15.75
2022-10-05T09:50:59.301Z,8.75
2022-10-05T09:53:58.296Z,10.38
2022-10-05T09:57:05.315Z,8.43
2022-10-05T10:00:23.299Z,10.55
2022-10-05T10:03:20.342Z,9.25
2022-10-05T10:06:12.851Z,10.30
2022-10-05T10:09:09.295Z,10.15
2022-10-05T10:12:21.294Z,9.27
2022-10-05T10:15:14.346Z,11.20
2022-10-05T10:18:20.415Z,5.38
2022-10-05T10:21:07.329Z,8.57
2022-10-05T10:24:08.306Z,11.30
2022-10-05T10:27:23.293Z,14.05
2022-10-05T10:30:34.425Z,9.15
2022-10-05T10:33:54.288Z,7.97
2022-10-05T10:36:46.456Z,14.15
2022-10-05T10:39:46.302Z,10.77
2022-10-05T10:43:01.276Z,7.82
2022-10-05T10:45:58.422Z,8.52
2022-10-05T10:48:38.373Z,8.18
2022-10-05T10:51:39.326Z,12.70
2022-10-05T10:54:19.396Z,14.13
2022-10-05T10:57:16.285Z,8.63
2022-10-05T10:59:57.321Z,7.15
2022-10-05T11:02:50.384Z,7.63
2022-10-05T11:05:33.363Z,7.78
2022-10-05T11:08:42.322Z,9.13
2022-10-05T11:11:22.635Z,7.63
2022-10-05T11:14:09.357Z,9.52
2022-10-05T11:16:57.307Z,6.75
2022-10-05T11:20:03.489Z,11.43
2022-10-05T11:23:18.319Z,8.15
2022-10-05T11:25:58.319Z,12.60
2022-10-05T11:28:57.391Z,8.13
2022-10-05T11:31:40.416Z,10.02
2022-10-05T11:34:28.326Z,8.95
2022-10-05T11:37:35.340Z,11.80
2022-10-05T11:40:43.235Z,6.35
2022-10-05T11:43:43.294Z,6.13
2022-10-05T11:46:31.383Z,6.68
2022-10-05T11:49:05.211Z,5.43
2022-10-05T11:51:56.334Z,10.93
2022-10-05T11:54:58.649Z,8.00
2022-10-05T11:57:41.319Z,6.65
2022-10-05T12:00:39.324Z,8.57
2022-10-05T12:03:44.426Z,11.48
2022-10-05T12:06:25.337Z,14.15
2022-10-05T12:09:39.318Z,10.25
2022-10-05T12:15:02.431Z,10.77
2022-10-05T12:17:57.339Z,7.40
2022-10-05T12:20:45.324Z,5.82
2022-10-05T12:23:41.408Z,6.55
2022-10-05T12:26:32.371Z,9.07
2022-10-05T12:29:13.463Z,7.13
2022-10-05T12:32:05.329Z,6.53
2022-10-05T12:35:01.105Z,7.97
2022-10-05T12:37:50.359Z,7.55
2022-10-05T12:40:53.350Z,7.43
2022-10-05T12:43:47.354Z,7.75
2022-10-05T12:46:47.318Z,8.18
2022-10-05T12:49:51.343Z,14.80
2022-10-05T12:53:02.341Z,6.10
2022-10-05T12:55:43.022Z,6.70
2022-10-05T12:58:42.321Z,7.03
2022-10-05T13:01:28.316Z,7.78
2022-10-05T13:04:36.654Z,6.47
2022-10-05T13:07:28.362Z,7.70
2022-10-05T13:10:16.332Z,6.32
2022-10-05T13:13:25.364Z,10.77
2022-10-05T13:16:54.624Z,8.18
2022-10-05T13:19:39.503Z,6.20
2022-10-05T13:22:45.345Z,6.20
2022-10-05T13:25:35.331Z,6.72
2022-10-05T13:28:29.395Z,5.95
2022-10-05T13:31:21.388Z,10.80
2022-10-05T13:34:10.432Z,7.45
2022-10-05T13:37:05.349Z,8.10
2022-10-05T13:40:12.355Z,8.30
2022-10-05T13:43:06.825Z,14.25
2022-10-05T13:46:45.367Z,5.47
2022-10-05T13:49:32.484Z,10.18
2022-10-05T13:52:15.357Z,10.48
2022-10-05T13:55:02.340Z,8.63
2022-10-05T13:57:58.355Z,6.03
2022-10-05T14:01:06.973Z,12.40
2022-10-05T14:03:54.345Z,9.88
2022-10-05T14:06:37.341Z,7.97
2022-10-05T14:09:33.429Z,8.65
2022-10-05T14:12:20.363Z,7.53
2022-10-05T14:15:10.344Z,8.65
2022-10-05T14:17:51.336Z,10.60
2022-10-05T14:20:42.390Z,13.85
2022-10-05T14:23:32.351Z,10.23
2022-10-05T14:26:34.341Z,7.90
2022-10-05T14:29:21.359Z,9.88
2022-10-05T14:32:12.436Z,4.72
2022-10-05T14:35:14.368Z,5.57
2022-10-05T14:38:07.352Z,6.40
2022-10-05T14:40:43.408Z,8.05
2022-10-05T14:43:30.377Z,9.13
2022-10-05T14:46:05.590Z,7.80
2022-10-05T14:48:53.369Z,17.23
2022-10-05T14:51:38.249Z,10.50
2022-10-05T14:54:34.374Z,9.73
2022-10-05T14:57:15.463Z,16.75
2022-10-05T15:00:18.388Z,7.22
2022-10-05T15:02:59.402Z,9.60
2022-10-05T15:05:54.411Z,12.52
2022-10-05T15:08:45.377Z,10.30
2022-10-05T15:11:39.364Z,10.02
2022-10-05T15:14:31.372Z,15.57
2022-10-05T15:17:15.384Z,8.65
2022-10-05T15:20:08.376Z,7.43
2022-10-05T15:23:09.371Z,9.27
2022-10-05T15:26:20.396Z,8.10
2022-10-05T15:29:36.455Z,11.30
2022-10-05T15:32:48.381Z,9.50
2022-10-05T15:35:38.366Z,10.93
2022-10-05T15:38:38.379Z,16.30
2022-10-05T15:41:29.367Z,14.02
2022-10-05T15:44:22.470Z,13.00
2022-10-05T15:47:40.384Z,11.18
2022-10-05T15:50:29.700Z,18.73
2022-10-05T15:53:38.388Z,25.48
2022-10-05T15:56:29.360Z,24.80
2022-10-05T15:59:58.384Z,32.65
2022-10-05T16:03:01.379Z,31.67
2022-10-05T16:06:12.411Z,25.75
2022-10-05T16:09:13.444Z,30.13
2022-10-05T16:12:19.373Z,47.05
2022-10-05T16:15:33.398Z,53.40
2022-10-05T16:18:33.381Z,42.95
2022-10-05T16:21:51.889Z,33.30
2022-10-05T16:25:09.397Z,22.90
2022-10-05T16:28:10.567Z,27.05
2022-10-05T16:30:53.470Z,27.83
2022-10-05T16:34:08.390Z,35.90
2022-10-05T16:37:04.939Z,42.80
2022-10-05T16:40:04.487Z,30.88
2022-10-05T16:42:58.760Z,28.02
2022-10-05T16:45:51.430Z,21.55
2022-10-05T16:48:28.366Z,31.42
2022-10-05T16:54:01.969Z,42.65
2022-10-05T16:56:55.423Z,27.52
2022-10-05T17:00:14.848Z,28.45
2022-10-05T17:03:21.391Z,33.38
2022-10-05T17:06:04.915Z,30.05
2022-10-05T17:09:18.391Z,27.83
2022-10-05T17:12:45.404Z,86.57
2022-10-05T17:15:45.003Z,119.78
2022-10-05T17:18:57.402Z,140.50
2022-10-05T17:21:42.362Z,214.30
2022-10-05T17:24:35.405Z,101.60
2022-10-05T17:27:42.665Z,44.15
2022-10-05T17:30:42.448Z,39.05
2022-10-05T17:33:19.439Z,50.25
2022-10-05T17:36:11.409Z,53.13
2022-10-05T17:38:52.539Z,24.83
2022-10-05T17:41:39.398Z,16.83
2022-10-05T17:44:19.583Z,21.38
2022-10-05T17:47:10.388Z,19.80
2022-10-05T17:50:22.071Z,31.02
2022-10-05T17:53:47.394Z,24.05
2022-10-05T17:56:28.460Z,19.67
2022-10-05T17:59:22.383Z,24.02
2022-10-05T18:02:38.548Z,43.70
2022-10-05T18:05:25.417Z,29.83
2022-10-05T18:08:25.810Z,18.67
2022-10-05T18:11:21.474Z,15.02
2022-10-05T18:14:31.382Z,15.32
2022-10-05T18:17:28.433Z,22.42
2022-10-05T18:20:25.381Z,19.17
2022-10-05T18:23:21.421Z,15.27
2022-10-05T18:26:27.395Z,48.15
2022-10-05T18:29:13.880Z,34.58
2022-10-05T18:32:07.401Z,33.83
2022-10-05T18:35:02.552Z,27.17
2022-10-05T18:38:12.403Z,20.88
2022-10-05T18:41:00.409Z,23.48
2022-10-05T18:44:03.400Z,23.90
2022-10-05T18:46:56.435Z,23.02
2022-10-05T18:49:30.516Z,23.45
2022-10-05T18:52:28.407Z,19.08
2022-10-05T18:55:02.486Z,24.73
2022-10-05T18:58:01.419Z,34.40
2022-10-05T19:01:00.505Z,50.78
2022-10-05T19:04:02.431Z,73.85
2022-10-05T19:06:36.456Z,81.00
2022-10-05T19:09:29.431Z,75.15
2022-10-05T19:12:09.540Z,63.30
2022-10-05T19:14:57.461Z,43.53
2022-10-05T19:17:59.548Z,39.83
2022-10-05T19:21:04.443Z,33.40
2022-10-05T19:23:57.490Z,30.63
2022-10-05T19:27:03.443Z,35.80
2022-10-05T19:29:58.440Z,25.33
2022-10-05T19:33:20.471Z,25.05
2022-10-05T19:36:13.443Z,22.40
2022-10-05T19:38:59.548Z,26.17
2022-10-05T19:41:50.423Z,25.33
2022-10-05T19:44:56.784Z,28.15
2022-10-05T19:47:53.432Z,23.88
2022-10-05T19:50:30.478Z,27.45
2022-10-05T19:55:56.520Z,35.42
2022-10-05T19:58:39.438Z,38.17
2022-10-05T20:01:31.338Z,29.55
2022-10-05T20:04:12.428Z,27.70
2022-10-05T20:06:54.445Z,29.67
2022-10-05T20:09:29.492Z,32.38
2022-10-05T20:12:17.423Z,36.97
2022-10-05T20:15:10.103Z,28.75
2022-10-05T20:18:15.427Z,24.48
2022-10-05T20:20:50.010Z,23.98
2022-10-05T20:23:37.409Z,26.65
2022-10-05T20:26:30.162Z,25.92
2022-10-05T20:29:16.413Z,20.92
2022-10-05T20:31:50.557Z,26.77
2022-10-05T20:34:40.461Z,25.40
2022-10-05T20:37:15.478Z,23.77
2022-10-05T20:40:02.457Z,22.50
2022-10-05T20:42:43.417Z,23.52
2022-10-05T20:45:31.462Z,21.77
2022-10-05T20:48:12.507Z,28.38
2022-10-05T20:50:53.423Z,24.52
2022-10-05T20:53:34.492Z,22.15
2022-10-05T20:56:14.452Z,22.38
2022-10-05T20:58:55.524Z,30.52
2022-10-05T21:01:38.440Z,23.88
2022-10-05T21:04:19.631Z,29.48
2022-10-05T21:07:00.455Z,24.77
2022-10-05T21:09:50.438Z,25.55
2022-10-05T21:12:40.452Z,25.45
2022-10-05T21:15:14.503Z,27.50
2022-10-05T21:18:03.458Z,23.55
2022-10-05T21:20:37.511Z,28.17
2022-10-05T21:23:24.422Z,28.33
2022-10-05T21:25:58.525Z,22.48
2022-10-05T21:28:46.463Z,23.05
2022-10-05T21:31:20.561Z,18.13
2022-10-05T21:34:07.459Z,23.85
2022-10-05T21:36:41.535Z,21.23
2022-10-05T21:39:29.430Z,25.08
2022-10-05T21:42:03.580Z,22.85
2022-10-05T21:44:50.444Z,22.27
2022-10-05T21:47:24.497Z,23.40
2022-10-05T21:50:14.494Z,23.35
2022-10-05T21:52:50.114Z,29.63
2022-10-05T21:55:37.445Z,23.27
2022-10-05T21:58:11.544Z,18.67
2022-10-05T22:00:58.506Z,26.63
2022-10-05T22:03:32.594Z,18.00
2022-10-05T22:06:19.441Z,23.45
2022-10-05T22:09:00.463Z,21.65
2022-10-05T22:11:48.453Z,19.67
2022-10-05T22:14:29.457Z,18.45
2022-10-05T22:17:28.448Z,18.98
2022-10-05T22:20:20.469Z,19.38
2022-10-05T22:22:54.610Z,18.55
2022-10-05T22:25:42.456Z,24.73
2022-10-05T22:28:19.554Z,17.83
2022-10-05T22:33:41.474Z,17.70
2022-10-05T22:36:23.480Z,20.27
2022-10-05T22:39:17.465Z,17.38
2022-10-05T22:44:39.063Z,16.80
2022-10-05T22:47:25.448Z,20.00
2022-10-05T22:50:00.156Z,15.13
2022-10-05T22:52:47.485Z,15.20
2022-10-05T22:55:21.603Z,20.38
2022-10-05T22:58:09.456Z,16.33
2022-10-05T23:00:59.105Z,14.60
2022-10-05T23:03:45.469Z,14.55
2022-10-05T23:06:21.610Z,13.98
2022-10-05T23:09:08.476Z,11.03
2022-10-05T23:11:52.163Z,17.23
2022-10-05T23:14:39.474Z,12.50
2022-10-05T23:17:13.600Z,15.38
2022-10-05T23:20:01.467Z,15.38
2022-10-05T23:22:42.492Z,14.63
2022-10-05T23:25:29.468Z,20.25
2022-10-05T23:28:10.573Z,14.80
2022-10-05T23:31:04.513Z,17.40
2022-10-05T23:33:51.472Z,13.07
2022-10-05T23:36:34.456Z,16.02
2022-10-05T23:39:28.448Z,13.48
2022-10-05T23:44:49.473Z,15.88
2022-10-05T23:47:23.552Z,18.23
2022-10-05T23:50:13.492Z,17.73
2022-10-05T23:52:47.521Z,17.80
2022-10-05T23:55:34.484Z,16.15
2022-10-05T23:58:08.521Z,17.33
